Erial, New Jersey
Current Conditions -  °F | °C
As of 5:54 AM on Wednesday 26 Nov 2014 (Local Time) from KVAY Reporting Station
Overcast Overcast  
Wind Chill: 45°   Ceiling: 5000
Heat Index: 45°   Visibility: 10mi
Dew Point: 35°   Wind: 3mph
Humidity: 68%   Direction: 90°E
Pressure: 30.09"   Gusts: NA
Location:  39.7334°N, 74.9786°W
Report Text: KVAY 261054Z AUTO 09003KT 10SM OVC050 07/02 A3009 RMK AO2 RAE53 SLP189 P0000 T00720017
Loading
Personal Weather Stations






























Interactive Weather Map New forecast layout! Learn more

10-Day Weather Forecast

Advertisements
Track Severe Weather on mobile